Disclaimer

Please do not use the information listed here in-flight or in-navigation, as they are not provided to us by the airports but are provided by volunteers, so they might be outdated.

Search


Regions


Airport information page

Radio informations:
Tower (TWR) - 118.7 MHz

Airport informations:
Latitude: 19° 43' 58.76" N
Longitude: 072° 11' 41.06" W
Elevation: 10 feet - 3 meters
Operating hours: Remarks
Operating agency: Civil government, landing fees and diplomatic clearance may be required
Timezone: UTC-5
Fuel: 100/130 MIL Spec, low lead, aviation gasoline (BLUE)

Runway information:
05/23 - 4886 x 131 feet< - >1489 x 40 meters

Recent METARs:
MTCH 161800Z 02006KT 9000 FEW026 31/19 Q1012 A2991
MTCH 161800Z 02006KT 9000 FEW026 31/19 Q1012 A2991
MTCH 161800Z 02006KT 9000 FEW026 31/19 Q1012 A2991

Airport on the map: